Time;durP1;ratioP1;P1;durP2;ratioP2;P2;SDS_P1;SDS_P2;PMS_P1;PMS_P2;Temp;Humidity;BMP_temperature;BMP_pressure;BME280_temperature;BME280_humidity;BME280_pressure;Samples;Min_cycle;Max_cycle;Signal;HPM_P1;HPM_P2
2022/07/30 00:02:03;;;;;;;10.13;5.97;;;19.20;99.90;;;;;;5080190;28;20383;-91
2022/07/30 00:04:29;;;;;;;7.25;5.30;;;19.20;99.90;;;;;;5074693;28;20103;-90
2022/07/30 00:06:55;;;;;;;8.05;5.28;;;19.20;99.90;;;;;;5073643;28;20475;-92
2022/07/30 00:09:21;;;;;;;9.45;5.97;;;19.30;99.90;;;;;;5075110;28;20081;-91
2022/07/30 00:11:47;;;;;;;8.27;5.88;;;19.20;99.90;;;;;;5072452;28;20020;-89
2022/07/30 00:14:12;;;;;;;9.32;6.22;;;19.20;99.90;;;;;;5078482;28;20024;-90
2022/07/30 00:16:38;;;;;;;9.68;5.20;;;19.20;99.90;;;;;;5075437;28;20080;-91
2022/07/30 00:19:04;;;;;;;9.73;5.82;;;19.20;99.90;;;;;;5073030;28;20020;-88
2022/07/30 00:21:30;;;;;;;8.20;5.70;;;19.30;99.90;;;;;;5074076;28;20177;-91
2022/07/30 00:23:56;;;;;;;8.25;5.25;;;19.30;99.90;;;;;;5078954;28;20059;-89
2022/07/30 00:26:22;;;;;;;7.75;5.18;;;19.40;99.90;;;;;;5072164;28;20025;-87
2022/07/30 00:28:49;;;;;;;10.35;5.45;;;19.30;99.90;;;;;;5072651;28;20028;-90
2022/07/30 00:31:15;;;;;;;;;;;19.40;99.90;;;;;;5072517;28;20051;-89
2022/07/30 00:33:42;;;;;;;6.47;4.45;;;19.40;99.90;;;;;;5073337;28;20430;-88
2022/07/30 00:36:08;;;;;;;8.57;5.30;;;19.40;99.90;;;;;;5055821;28;20032;-89
2022/07/30 00:38:34;;;;;;;7.80;5.25;;;19.40;99.90;;;;;;5075266;28;20028;-89
2022/07/30 00:41:00;;;;;;;7.97;5.15;;;19.30;99.90;;;;;;5086995;28;20036;-89
2022/07/30 00:43:26;;;;;;;6.45;4.43;;;19.30;99.90;;;;;;5101463;28;20014;-89
2022/07/30 00:45:52;;;;;;;8.38;5.28;;;19.30;99.90;;;;;;5081854;28;20071;-89
2022/07/30 00:48:19;;;;;;;15.45;4.75;;;19.30;99.90;;;;;;5081645;28;20131;-91
2022/07/30 00:50:44;;;;;;;9.40;4.80;;;19.20;99.90;;;;;;5072122;28;20119;-90
2022/07/30 00:53:10;;;;;;;6.82;4.60;;;19.20;99.90;;;;;;5099230;28;20112;-90
2022/07/30 00:55:36;;;;;;;7.57;5.03;;;19.20;99.90;;;;;;5074174;28;20028;-89
2022/07/30 00:58:02;;;;;;;6.78;4.28;;;19.20;99.90;;;;;;5074118;28;20012;-90
2022/07/30 01:00:28;;;;;;;6.43;4.22;;;19.20;99.90;;;;;;5088630;28;20032;-91
2022/07/30 01:02:53;;;;;;;7.63;4.68;;;19.20;99.90;;;;;;5072854;28;20024;-91
2022/07/30 01:05:19;;;;;;;6.88;4.75;;;19.30;99.90;;;;;;5072477;28;20035;-89
2022/07/30 01:07:47;;;;;;;9.15;4.82;;;19.40;99.90;;;;;;5076252;28;20047;-92
2022/07/30 01:10:14;;;;;;;7.40;5.05;;;19.40;99.90;;;;;;5072958;28;20056;-90
2022/07/30 01:12:42;;;;;;;9.43;4.38;;;19.30;99.90;;;;;;5070559;28;20016;-91
2022/07/30 01:15:10;;;;;;;7.10;4.93;;;19.40;99.90;;;;;;5091572;28;20032;-89
2022/07/30 01:17:36;;;;;;;6.95;4.32;;;19.20;99.90;;;;;;5119349;22;20071;-60
2022/07/30 01:20:12;;;;;;;9.20;4.80;;;19.20;99.90;;;;;;5067609;28;20035;-61
2022/07/30 01:22:59;;;;;;;8.00;5.63;;;19.20;99.90;;;;;;5068102;28;20037;-61
2022/07/30 01:25:50;;;;;;;7.38;5.32;;;19.10;99.90;;;;;;5068037;28;20095;-60
2022/07/30 01:28:21;;;;;;;8.82;5.35;;;19.10;99.90;;;;;;5066648;28;20052;-62
2022/07/30 01:30:48;;;;;;;7.88;4.70;;;19.20;99.90;;;;;;5065463;28;20032;-61
2022/07/30 01:33:14;;;;;;;;;;;19.20;99.90;;;;;;5068350;28;20028;-61
2022/07/30 01:35:43;;;;;;;7.10;4.40;;;19.20;99.90;;;;;;5067990;28;20686;-61
2022/07/30 01:38:10;;;;;;;7.35;4.88;;;19.30;99.90;;;;;;5065849;28;20562;-61
2022/07/30 01:40:38;;;;;;;10.10;5.45;;;19.20;99.90;;;;;;5067368;28;20028;-61
2022/07/30 01:43:06;;;;;;;9.00;5.72;;;19.20;99.90;;;;;;5067691;28;20063;-61
2022/07/30 01:45:33;;;;;;;8.90;5.47;;;19.10;99.90;;;;;;5062989;28;20009;-61
2022/07/30 01:48:03;;;;;;;9.55;5.95;;;19.00;99.90;;;;;;5064484;28;20074;-63
2022/07/30 01:50:31;;;;;;;7.03;5.22;;;19.00;99.90;;;;;;5046929;28;20033;-60
2022/07/30 01:52:59;;;;;;;7.13;5.28;;;19.00;99.90;;;;;;5068143;28;20024;-61
2022/07/30 01:55:32;;;;;;;7.63;5.35;;;19.10;99.90;;;;;;5067758;28;20024;-60
2022/07/30 01:58:00;;;;;;;6.53;5.25;;;19.10;99.90;;;;;;5069109;28;20036;-61
2022/07/30 02:00:29;;;;;;;9.45;5.63;;;19.00;99.90;;;;;;5069580;28;20024;-60
2022/07/30 02:02:56;;;;;;;9.70;5.47;;;19.00;99.90;;;;;;5070129;28;20112;-61
2022/07/30 02:05:23;;;;;;;8.57;6.00;;;19.10;99.90;;;;;;5070050;28;20144;-60
2022/07/30 02:07:55;;;;;;;9.57;5.95;;;18.90;99.90;;;;;;5069602;28;20024;-61
2022/07/30 02:10:40;;;;;;;7.65;6.20;;;18.80;99.90;;;;;;5069763;28;20472;-61
2022/07/30 02:13:09;;;;;;;9.13;5.50;;;18.80;99.90;;;;;;5069766;28;20029;-61
2022/07/30 02:15:44;;;;;;;9.10;5.88;;;18.80;99.90;;;;;;5069820;28;20103;-60
2022/07/30 02:18:17;;;;;;;9.75;5.43;;;18.90;99.90;;;;;;5069581;28;20525;-61
2022/07/30 02:20:55;;;;;;;6.95;5.05;;;18.90;99.90;;;;;;5069667;28;20040;-61
2022/07/30 02:23:22;;;;;;;8.40;6.05;;;18.70;99.90;;;;;;5069782;28;20040;-61
2022/07/30 02:25:50;;;;;;;6.35;4.95;;;18.70;99.90;;;;;;5069836;28;20048;-61
2022/07/30 02:28:18;;;;;;;7.53;5.75;;;18.60;99.90;;;;;;5069529;28;20033;-60
2022/07/30 02:30:50;;;;;;;9.60;6.05;;;18.70;99.90;;;;;;5069302;28;20021;-60
2022/07/30 02:33:21;;;;;;;9.57;5.57;;;18.70;99.90;;;;;;5069657;28;20028;-61
2022/07/30 02:35:48;;;;;;;9.63;5.88;;;18.60;99.90;;;;;;5069762;28;20021;-61
2022/07/30 02:38:16;;;;;;;9.40;6.57;;;18.60;99.90;;;;;;5069448;28;20028;-60
2022/07/30 02:40:43;;;;;;;8.43;5.95;;;18.70;99.90;;;;;;5069305;28;20036;-61
2022/07/30 02:43:10;;;;;;;9.05;6.07;;;18.80;99.90;;;;;;5069439;28;20036;-60
2022/07/30 02:45:36;;;;;;;8.50;5.47;;;18.80;99.90;;;;;;5069279;28;20498;-60
2022/07/30 02:48:06;;;;;;;11.15;6.05;;;18.80;99.90;;;;;;5069489;28;20037;-60
2022/07/30 02:50:32;;;;;;;9.65;6.07;;;18.90;99.90;;;;;;5069269;28;20391;-61
2022/07/30 02:53:00;;;;;;;7.88;6.28;;;18.90;99.90;;;;;;5071848;28;20523;-60
2022/07/30 02:55:28;;;;;;;7.93;5.65;;;19.00;99.90;;;;;;5072956;28;20033;-61
2022/07/30 02:57:56;;;;;;;12.05;5.97;;;18.90;99.90;;;;;;5072991;28;20020;-61
2022/07/30 03:00:22;;;;;;;;;;;18.90;99.90;;;;;;5073315;28;20017;-60
2022/07/30 03:02:49;;;;;;;6.00;5.10;;;18.90;99.90;;;;;;5072520;28;19920;-61
2022/07/30 03:05:15;;;;;;;9.90;4.50;;;18.90;99.90;;;;;;5072890;28;20025;-61
2022/07/30 03:07:41;;;;;;;8.77;5.70;;;18.90;99.90;;;;;;5057649;28;20028;-61
2022/07/30 03:10:08;;;;;;;7.57;5.37;;;18.90;99.90;;;;;;5052728;28;20085;-61
2022/07/30 03:12:36;;;;;;;8.18;5.28;;;18.80;99.90;;;;;;5052595;28;20025;-61
2022/07/30 03:15:01;;;;;;;8.02;5.45;;;18.80;99.90;;;;;;5052419;28;20065;-62
2022/07/30 03:17:31;;;;;;;6.38;5.18;;;18.90;99.90;;;;;;5052519;28;20059;-61
2022/07/30 03:19:59;;;;;;;7.20;5.18;;;18.90;99.90;;;;;;5034589;28;20029;-61
2022/07/30 03:22:27;;;;;;;6.75;5.03;;;18.80;99.90;;;;;;5052409;28;20048;-61
2022/07/30 03:24:56;;;;;;;7.78;5.63;;;18.70;99.90;;;;;;5052347;28;20029;-60
2022/07/30 03:27:24;;;;;;;7.30;5.43;;;18.80;99.90;;;;;;5052408;28;20079;-60
2022/07/30 03:29:54;;;;;;;7.85;5.25;;;18.80;99.90;;;;;;5052580;28;20024;-60
2022/07/30 03:32:20;;;;;;;7.63;5.00;;;18.70;99.90;;;;;;5052153;28;20056;-60
2022/07/30 03:34:47;;;;;;;7.80;5.83;;;18.70;99.90;;;;;;5052175;28;20028;-60
2022/07/30 03:37:13;;;;;;;11.02;5.95;;;18.70;99.90;;;;;;5052109;28;20072;-60
2022/07/30 03:39:39;;;;;;;8.57;5.05;;;18.70;99.90;;;;;;5052196;28;20392;-61
2022/07/30 03:42:06;;;;;;;8.18;5.47;;;18.70;99.90;;;;;;5052016;28;20095;-60
2022/07/30 03:44:32;;;;;;;;;;;18.70;99.90;;;;;;5052656;28;20024;-61
2022/07/30 03:46:59;;;;;;;9.18;6.00;;;18.80;99.90;;;;;;5052268;28;19916;-61
2022/07/30 03:49:25;;;;;;;7.67;5.67;;;18.80;99.90;;;;;;5051883;28;20056;-61
2022/07/30 03:51:52;;;;;;;8.95;6.60;;;18.80;99.90;;;;;;5065237;28;20441;-60
2022/07/30 03:54:18;;;;;;;12.00;6.27;;;18.80;99.90;;;;;;5062466;28;20032;-60
2022/07/30 03:56:44;;;;;;;9.38;6.90;;;18.70;99.90;;;;;;5060317;28;20255;-60
2022/07/30 03:59:12;;;;;;;9.70;6.57;;;18.50;99.90;;;;;;5043213;28;20060;-60
2022/07/30 04:01:38;;;;;;;9.77;6.78;;;18.30;99.90;;;;;;5066345;28;20135;-60
2022/07/30 04:04:06;;;;;;;11.40;7.03;;;18.40;99.90;;;;;;5063585;28;20112;-60
2022/07/30 04:06:35;;;;;;;9.88;6.75;;;18.50;99.90;;;;;;5071635;28;20025;-60
2022/07/30 04:09:01;;;;;;;10.23;6.70;;;18.50;99.90;;;;;;5071754;28;20033;-60
2022/07/30 04:11:27;;;;;;;8.93;6.78;;;18.60;99.90;;;;;;5071676;28;20059;-60
2022/07/30 04:13:52;;;;;;;9.45;6.60;;;18.60;99.90;;;;;;5071341;28;20029;-61
2022/07/30 04:16:27;;;;;;;9.90;6.35;;;18.60;99.90;;;;;;5064998;28;20032;-62
2022/07/30 04:18:55;;;;;;;12.68;6.97;;;18.60;99.90;;;;;;5043310;28;20481;-61
2022/07/30 04:21:23;;;;;;;11.68;6.28;;;18.70;99.90;;;;;;5051294;28;20063;-60
2022/07/30 04:23:49;;;;;;;11.05;6.80;;;18.80;99.90;;;;;;5050004;28;20025;-61
2022/07/30 04:26:16;;;;;;;9.02;6.60;;;18.80;99.90;;;;;;5049436;28;20059;-61
2022/07/30 04:28:42;;;;;;;8.52;6.50;;;18.80;99.90;;;;;;5049794;28;20388;-61
2022/07/30 04:31:10;;;;;;;8.75;7.15;;;18.80;99.90;;;;;;5049763;28;20142;-61
2022/07/30 04:33:36;;;;;;;11.05;9.00;;;18.80;99.90;;;;;;5049604;28;20094;-61
2022/07/30 04:36:07;;;;;;;10.10;8.40;;;18.90;99.90;;;;;;5043874;28;20224;-61
2022/07/30 04:38:32;;;;;;;13.95;12.15;;;18.90;99.90;;;;;;5037620;28;20021;-61
2022/07/30 04:40:58;;;;;;;18.55;13.93;;;18.80;99.90;;;;;;5020362;28;20025;-61
2022/07/30 04:43:24;;;;;;;17.38;14.18;;;18.90;99.90;;;;;;5036812;28;20059;-61
2022/07/30 04:45:49;;;;;;;16.73;13.10;;;19.00;99.90;;;;;;5039289;28;20029;-61
2022/07/30 04:48:15;;;;;;;17.85;12.48;;;19.00;99.90;;;;;;5049102;28;20036;-61
2022/07/30 04:50:44;;;;;;;14.32;11.07;;;19.10;99.90;;;;;;5048676;28;20664;-61
2022/07/30 04:53:10;;;;;;;13.90;9.73;;;19.20;99.90;;;;;;5049107;28;20032;-61
2022/07/30 04:55:41;;;;;;;14.10;9.95;;;19.20;99.90;;;;;;5050837;28;20021;-61
2022/07/30 04:58:12;;;;;;;11.13;8.77;;;19.30;99.90;;;;;;5050486;28;20033;-61
2022/07/30 05:00:39;;;;;;;12.02;9.15;;;19.30;99.90;;;;;;5050529;28;20427;-61
2022/07/30 05:03:07;;;;;;;9.30;7.25;;;19.30;99.90;;;;;;5050810;28;20037;-62
2022/07/30 05:05:34;;;;;;;8.82;7.50;;;19.30;99.90;;;;;;5051000;28;20037;-61
2022/07/30 05:08:01;;;;;;;10.18;7.90;;;19.30;99.90;;;;;;5050461;28;20515;-61
2022/07/30 05:10:27;;;;;;;;;;;19.30;99.90;;;;;;5050975;28;20093;-61
2022/07/30 05:12:52;;;;;;;11.05;7.57;;;19.30;99.90;;;;;;5050483;28;19909;-61
2022/07/30 05:15:18;;;;;;;9.05;7.13;;;19.30;99.90;;;;;;5032134;28;20110;-61
2022/07/30 05:17:44;;;;;;;10.25;6.97;;;19.40;99.90;;;;;;5050049;28;20491;-61
2022/07/30 05:20:10;;;;;;;11.00;6.90;;;19.40;99.90;;;;;;5050138;28;20029;-62
2022/07/30 05:22:36;;;;;;;8.30;6.93;;;19.40;99.90;;;;;;5050151;28;20120;-62
2022/07/30 05:25:02;;;;;;;9.77;7.38;;;19.40;99.90;;;;;;5050139;28;20195;-61
2022/07/30 05:27:28;;;;;;;9.25;7.20;;;19.50;99.90;;;;;;5050092;28;20114;-61
2022/07/30 05:29:53;;;;;;;15.77;8.55;;;19.50;99.90;;;;;;5049840;28;20078;-62
2022/07/30 05:32:19;;;;;;;10.65;7.63;;;19.50;99.90;;;;;;5050191;28;20029;-62
2022/07/30 05:34:45;;;;;;;9.55;7.47;;;19.50;99.90;;;;;;5050019;28;20528;-62
2022/07/30 05:37:10;;;;;;;10.50;6.78;;;19.60;99.90;;;;;;5032249;28;20361;-62
2022/07/30 05:39:36;;;;;;;10.20;6.97;;;19.60;99.90;;;;;;5050005;28;20112;-60
2022/07/30 05:42:02;;;;;;;13.18;7.20;;;19.60;99.90;;;;;;5049762;28;20732;-60
2022/07/30 05:44:28;;;;;;;11.38;6.93;;;19.70;99.90;;;;;;5049636;28;20041;-60
2022/07/30 05:46:53;;;;;;;8.38;6.55;;;19.70;99.90;;;;;;5049674;28;20033;-60
2022/07/30 05:49:19;;;;;;;12.18;7.72;;;19.80;99.90;;;;;;5049617;28;20024;-61
2022/07/30 05:51:45;;;;;;;9.63;7.15;;;19.90;99.90;;;;;;5049528;28;20029;-61
2022/07/30 05:54:10;;;;;;;10.05;7.50;;;19.90;99.90;;;;;;5049575;28;20060;-60
2022/07/30 05:56:36;;;;;;;11.93;7.82;;;19.90;99.90;;;;;;5042999;28;20025;-61
2022/07/30 05:59:03;;;;;;;10.27;8.55;;;20.00;99.90;;;;;;5035409;28;20139;-61
2022/07/30 06:01:28;;;;;;;13.38;9.18;;;20.00;99.90;;;;;;5037950;28;20029;-61
2022/07/30 06:03:54;;;;;;;14.20;10.23;;;20.10;99.90;;;;;;5049818;28;20472;-61
2022/07/30 06:06:19;;;;;;;13.77;9.98;;;20.10;99.90;;;;;;5049595;28;20523;-61
2022/07/30 06:08:45;;;;;;;14.73;9.63;;;20.10;99.90;;;;;;5049585;28;20029;-60
2022/07/30 06:11:11;;;;;;;13.80;10.35;;;20.10;99.90;;;;;;5049430;28;20091;-60
2022/07/30 06:13:39;;;;;;;15.23;11.70;;;20.10;99.90;;;;;;5049475;28;20056;-61
2022/07/30 06:16:05;;;;;;;14.25;11.25;;;20.10;99.90;;;;;;5049564;28;20090;-60
2022/07/30 06:18:31;;;;;;;16.88;11.10;;;20.20;99.90;;;;;;5049316;28;20763;-60
2022/07/30 06:20:56;;;;;;;15.32;11.00;;;20.30;99.90;;;;;;5049615;28;20064;-60
2022/07/30 06:23:22;;;;;;;14.45;10.50;;;20.30;99.90;;;;;;5049264;28;20072;-61
2022/07/30 06:25:49;;;;;;;13.32;9.32;;;20.30;99.90;;;;;;5049540;28;20095;-61
2022/07/30 06:28:16;;;;;;;14.38;11.25;;;20.40;99.90;;;;;;5052401;28;20115;-62
2022/07/30 06:30:44;;;;;;;17.85;10.82;;;20.40;99.90;;;;;;5053732;28;20202;-63
2022/07/30 06:33:10;;;;;;;22.92;12.05;;;20.50;99.90;;;;;;5053527;28;20040;-61
2022/07/30 06:35:36;;;;;;;16.10;10.93;;;20.40;99.90;;;;;;5053153;28;20444;-61
2022/07/30 06:38:02;;;;;;;14.75;10.65;;;20.40;99.90;;;;;;5053609;28;20047;-61
2022/07/30 06:40:28;;;;;;;12.90;9.65;;;20.40;99.90;;;;;;5052959;28;20376;-61
2022/07/30 06:42:53;;;;;;;19.75;10.77;;;20.50;99.90;;;;;;5052935;28;20127;-61
2022/07/30 06:45:19;;;;;;;21.70;12.82;;;20.50;99.90;;;;;;5053261;28;20181;-61
2022/07/30 06:47:45;;;;;;;18.52;12.57;;;20.60;99.90;;;;;;5053292;28;20057;-62
2022/07/30 06:50:10;;;;;;;16.92;12.98;;;20.70;99.90;;;;;;5052775;28;20476;-61
2022/07/30 06:52:36;;;;;;;17.60;12.23;;;20.80;99.90;;;;;;5053065;28;20021;-61
2022/07/30 06:55:02;;;;;;;17.00;12.43;;;20.90;99.90;;;;;;5053503;28;20025;-61
2022/07/30 06:57:28;;;;;;;20.15;12.15;;;21.00;99.90;;;;;;5053070;28;20029;-61
2022/07/30 06:59:53;;;;;;;18.42;12.23;;;21.10;99.90;;;;;;5053070;28;20357;-61
2022/07/30 07:02:19;;;;;;;17.80;12.35;;;21.20;99.90;;;;;;5052852;28;20033;-61
2022/07/30 07:04:45;;;;;;;17.25;10.68;;;21.30;99.90;;;;;;5052776;28;20048;-61
2022/07/30 07:07:11;;;;;;;18.30;11.60;;;21.30;99.90;;;;;;5052603;28;20021;-61
2022/07/30 07:09:36;;;;;;;14.27;10.73;;;21.50;99.90;;;;;;5052557;28;20025;-61
2022/07/30 07:12:02;;;;;;;13.40;9.60;;;21.50;99.90;;;;;;5034705;28;20021;-60
2022/07/30 07:14:28;;;;;;;14.50;10.15;;;21.50;99.90;;;;;;5052747;28;20384;-61
2022/07/30 07:16:53;;;;;;;15.07;8.88;;;21.60;99.90;;;;;;5052293;28;20464;-60
2022/07/30 07:19:19;;;;;;;17.05;12.07;;;21.60;99.90;;;;;;5034427;28;20041;-61
2022/07/30 07:21:45;;;;;;;15.45;10.35;;;21.40;99.90;;;;;;5052250;28;20045;-61
2022/07/30 07:24:11;;;;;;;14.05;9.75;;;21.50;99.90;;;;;;5052204;28;20029;-61
2022/07/30 07:26:36;;;;;;;13.82;9.18;;;21.50;99.90;;;;;;5052169;28;20025;-61
2022/07/30 07:29:02;;;;;;;14.48;10.02;;;21.70;99.90;;;;;;5052257;28;20029;-61
2022/07/30 07:31:28;;;;;;;15.73;10.02;;;21.70;99.90;;;;;;5052079;28;20033;-61
2022/07/30 07:33:53;;;;;;;12.18;9.32;;;21.60;99.90;;;;;;5052231;28;20028;-60
2022/07/30 07:36:22;;;;;;;14.57;9.85;;;21.60;99.90;;;;;;5052068;28;20029;-61
2022/07/30 07:38:49;;;;;;;14.55;9.75;;;21.50;99.90;;;;;;5052105;28;20041;-61
2022/07/30 07:41:15;;;;;;;12.13;8.20;;;21.60;99.90;;;;;;5052085;28;20036;-61
2022/07/30 07:43:40;;;;;;;12.48;8.95;;;21.70;99.90;;;;;;5050841;28;20013;-61
2022/07/30 07:46:07;;;;;;;14.77;7.90;;;21.80;99.90;;;;;;5051790;28;20331;-61
2022/07/30 07:48:33;;;;;;;12.77;9.18;;;21.90;99.90;;;;;;5052165;28;20048;-63
2022/07/30 07:50:59;;;;;;;15.95;9.48;;;21.90;99.90;;;;;;5051727;28;20021;-61
2022/07/30 07:53:25;;;;;;;11.68;9.00;;;21.90;99.90;;;;;;5051734;28;20036;-62
2022/07/30 07:55:51;;;;;;;14.40;8.98;;;22.00;99.90;;;;;;5048837;28;20380;-63
2022/07/30 07:58:17;;;;;;;14.73;9.13;;;22.10;99.90;;;;;;5041401;28;20381;-61
2022/07/30 08:00:43;;;;;;;11.93;8.50;;;22.10;99.90;;;;;;5038405;28;20040;-61
2022/07/30 08:03:08;;;;;;;10.10;8.35;;;22.30;99.90;;;;;;5040928;28;20052;-60
2022/07/30 08:05:34;;;;;;;12.48;8.65;;;22.40;99.90;;;;;;5038979;28;20045;-61
2022/07/30 08:08:00;;;;;;;12.50;9.20;;;22.60;99.90;;;;;;5033353;28;20025;-60
2022/07/30 08:10:26;;;;;;;15.27;10.00;;;22.70;99.90;;;;;;5031325;28;20039;-61
2022/07/30 08:12:52;;;;;;;14.52;8.77;;;22.60;99.90;;;;;;5031303;28;20064;-60
2022/07/30 08:15:18;;;;;;;14.88;9.00;;;22.50;99.90;;;;;;5030043;28;20068;-60
2022/07/30 08:17:45;;;;;;;12.93;8.15;;;22.40;99.90;;;;;;5039559;28;20045;-60
2022/07/30 08:20:12;;;;;;;13.35;9.30;;;22.40;99.90;;;;;;5031669;28;20075;-60
2022/07/30 08:22:38;;;;;;;;;;;22.50;99.90;;;;;;5052049;28;20080;-60
2022/07/30 08:25:05;;;;;;;19.83;9.77;;;22.40;99.90;;;;;;5051305;28;19905;-60
2022/07/30 08:27:30;;;;;;;11.85;8.85;;;22.40;99.90;;;;;;5051431;28;20021;-60
2022/07/30 08:29:56;;;;;;;10.77;8.75;;;22.40;99.90;;;;;;5051235;28;20033;-60
2022/07/30 08:32:22;;;;;;;10.90;8.25;;;22.30;99.90;;;;;;5054437;28;20548;-60
2022/07/30 08:34:48;;;;;;;12.68;9.63;;;22.40;99.90;;;;;;5033119;28;20029;-60
2022/07/30 08:37:14;;;;;;;11.98;9.30;;;22.50;99.90;;;;;;5068030;28;20067;-60
2022/07/30 08:39:40;;;;;;;11.93;8.88;;;22.50;99.90;;;;;;5070477;28;20025;-60
2022/07/30 08:42:06;;;;;;;14.55;9.82;;;22.60;99.90;;;;;;5070504;28;20040;-60
2022/07/30 08:44:34;;;;;;;12.63;7.85;;;22.60;99.90;;;;;;5070669;28;20060;-60
2022/07/30 08:47:01;;;;;;;10.45;9.05;;;22.60;99.90;;;;;;5063661;28;20036;-62
2022/07/30 08:49:28;;;;;;;12.25;8.38;;;22.70;99.90;;;;;;5070280;28;20058;-61
2022/07/30 08:51:55;;;;;;;11.48;8.38;;;22.70;99.90;;;;;;5070616;28;20518;-61
2022/07/30 08:54:21;;;;;;;11.95;7.85;;;22.80;99.90;;;;;;5068215;28;20021;-60
2022/07/30 08:56:48;;;;;;;16.80;8.30;;;22.90;99.90;;;;;;5050438;28;20025;-63
2022/07/30 08:59:16;;;;;;;9.85;7.22;;;22.90;99.90;;;;;;5050654;28;20052;-61
2022/07/30 09:01:43;;;;;;;9.07;6.88;;;22.90;99.90;;;;;;5050373;28;20033;-61
2022/07/30 09:04:09;;;;;;;9.20;6.78;;;22.90;99.90;;;;;;5050167;28;20025;-61
2022/07/30 09:06:35;;;;;;;10.55;7.47;;;22.90;99.90;;;;;;5049143;28;20032;-61
2022/07/30 09:09:01;;;;;;;9.52;6.75;;;23.00;99.90;;;;;;5049307;28;20020;-60
2022/07/30 09:11:27;;;;;;;12.60;7.20;;;23.10;99.90;;;;;;5050243;28;20040;-58
2022/07/30 09:13:52;;;;;;;9.65;6.95;;;23.20;99.90;;;;;;5056544;28;20020;-58
2022/07/30 09:16:23;;;;;;;12.90;7.15;;;23.20;99.90;;;;;;5070302;28;20028;-57
2022/07/30 09:18:50;;;;;;;10.52;7.28;;;23.40;99.90;;;;;;5070112;28;20056;-57
2022/07/30 09:21:17;;;;;;;;;;;23.50;99.90;;;;;;5070528;28;20158;-58
2022/07/30 09:24:08;;;;;;;8.65;7.70;;;23.70;99.90;;;;;;5070309;28;19915;-58
2022/07/30 09:26:54;;;;;;;11.52;7.55;;;23.80;99.90;;;;;;5070055;28;20029;-58
2022/07/30 09:29:23;;;;;;;9.40;6.93;;;23.80;99.90;;;;;;5070093;28;20033;-57
2022/07/30 09:31:57;;;;;;;11.32;7.90;;;24.00;99.90;;;;;;5061024;28;20078;-57
2022/07/30 09:34:24;;;;;;;10.25;6.85;;;24.10;99.90;;;;;;5060931;28;20054;-58
2022/07/30 09:36:51;;;;;;;11.05;7.05;;;24.00;99.90;;;;;;5069676;28;20017;-59
2022/07/30 09:39:34;;;;;;;7.90;6.18;;;24.00;99.90;;;;;;5070097;28;20067;-56
2022/07/30 09:42:01;;;;;;;11.23;6.90;;;23.90;99.90;;;;;;5069831;28;20054;-58
2022/07/30 09:44:28;;;;;;;10.65;7.45;;;23.90;99.90;;;;;;5069836;28;20033;-57
2022/07/30 09:46:55;;;;;;;12.25;7.68;;;23.90;99.90;;;;;;5060785;28;20048;-58
2022/07/30 09:49:27;;;;;;;10.82;7.10;;;24.00;99.90;;;;;;5058386;28;20025;-58
2022/07/30 09:51:54;;;;;;;8.90;6.30;;;24.10;99.90;;;;;;5059058;28;20032;-58
2022/07/30 09:54:20;;;;;;;11.38;7.10;;;24.00;99.90;;;;;;5051962;28;20031;-57
2022/07/30 09:56:46;;;;;;;12.70;7.18;;;24.00;99.90;;;;;;5059254;28;20383;-57
2022/07/30 09:59:26;;;;;;;9.27;6.25;;;24.00;99.90;;;;;;5058244;28;20024;-57
2022/07/30 10:01:53;;;;;;;8.27;6.32;;;24.00;99.90;;;;;;5051448;28;20048;-58
2022/07/30 10:04:26;;;;;;;;;;;24.10;99.90;;;;;;5054864;28;20064;-57
2022/07/30 10:06:53;;;;;;;8.35;6.75;;;24.00;99.90;;;;;;5057686;28;19909;-58
2022/07/30 10:09:28;;;;;;;12.50;6.53;;;24.00;99.90;;;;;;5057911;28;20116;-58
2022/07/30 10:11:57;;;;;;;11.43;7.45;;;24.00;99.90;;;;;;5057703;28;20559;-57
2022/07/30 10:14:27;;;;;;;8.63;6.93;;;23.80;99.90;;;;;;5057105;28;20459;-57
2022/07/30 10:16:53;;;;;;;11.00;7.47;;;23.90;99.90;;;;;;5057521;28;20434;-57
2022/07/30 10:19:20;;;;;;;11.00;7.82;;;24.00;99.90;;;;;;5057827;28;20028;-57
2022/07/30 10:21:48;;;;;;;12.02;6.70;;;23.90;99.90;;;;;;5058749;28;20364;-57
2022/07/30 10:24:17;;;;;;;12.15;6.82;;;23.70;99.90;;;;;;5057532;28;20112;-57
2022/07/30 10:26:44;;;;;;;11.52;7.57;;;23.70;99.90;;;;;;5056311;28;20760;-57
2022/07/30 10:29:11;;;;;;;9.43;7.30;;;23.70;99.90;;;;;;5057417;28;20051;-57
2022/07/30 10:31:37;;;;;;;10.88;6.97;;;23.70;99.90;;;;;;5058050;28;20024;-57
2022/07/30 10:34:03;;;;;;;10.25;7.47;;;23.70;99.90;;;;;;5058467;28;20171;-57
2022/07/30 10:36:32;;;;;;;11.05;8.57;;;23.70;99.90;;;;;;5059590;28;20021;-57
2022/07/30 10:38:59;;;;;;;13.73;7.82;;;23.60;99.90;;;;;;5057691;28;20032;-57
2022/07/30 10:41:44;;;;;;;12.77;8.25;;;23.30;99.90;;;;;;5058801;28;20044;-58
2022/07/30 10:44:47;;;;;;;13.57;8.52;;;23.20;99.90;;;;;;5056947;28;20078;-57
2022/07/30 10:47:17;;;;;;;11.48;8.15;;;23.10;99.90;;;;;;5057076;28;20467;-58
2022/07/30 10:50:13;;;;;;;9.90;7.57;;;23.10;99.90;;;;;;5060021;28;20103;-58
2022/07/30 10:52:45;;;;;;;13.65;8.95;;;22.90;99.90;;;;;;5068687;28;20043;-57
2022/07/30 10:55:13;;;;;;;13.07;9.25;;;22.80;99.90;;;;;;5068890;28;20082;-57
2022/07/30 10:58:00;;;;;;;11.32;8.85;;;22.80;99.90;;;;;;5069247;28;20028;-58
2022/07/30 11:00:27;;;;;;;11.43;9.93;;;22.70;99.90;;;;;;5055509;28;20758;-56
2022/07/30 11:03:12;;;;;;;;;;;22.50;99.90;;;;;;5069353;28;20113;-56
2022/07/30 11:05:38;;;;;;;16.80;10.07;;;22.50;99.90;;;;;;5050058;28;19915;-55
2022/07/30 11:08:27;;;;;;;13.90;9.20;;;22.40;99.90;;;;;;5055166;28;20029;-57
2022/07/30 11:10:53;;;;;;;14.90;9.90;;;22.40;99.90;;;;;;5058233;28;20643;-54
2022/07/30 11:13:51;;;;;;;14.73;9.85;;;22.30;99.90;;;;;;5058334;28;20521;-57
2022/07/30 11:16:19;;;;;;;11.63;10.20;;;22.10;99.90;;;;;;5059311;28;20439;-58
2022/07/30 11:19:03;;;;;;;15.50;10.20;;;22.10;99.90;;;;;;5061080;28;20076;-57
2022/07/30 11:21:30;;;;;;;14.10;11.00;;;21.90;99.90;;;;;;5055910;28;20029;-57
2022/07/30 11:23:57;;;;;;;14.90;12.40;;;21.90;99.90;;;;;;5060615;28;20090;-58
2022/07/30 11:26:38;;;;;;;16.85;13.70;;;21.60;99.90;;;;;;5057125;28;20086;-58
2022/07/30 11:29:31;;;;;;;16.55;12.52;;;21.50;99.90;;;;;;5057431;28;20488;-59
2022/07/30 11:32:17;;;;;;;14.43;12.90;;;21.50;99.90;;;;;;5043485;28;20020;-60
2022/07/30 11:34:43;;;;;;;17.38;13.23;;;21.20;99.90;;;;;;5062154;28;20033;-58
2022/07/30 11:37:08;;;;;;;20.20;14.75;;;21.40;99.90;;;;;;5063181;28;20028;-59
2022/07/30 11:39:52;;;;;;;18.00;15.43;;;21.20;99.90;;;;;;5062062;28;20606;-59
2022/07/30 11:42:29;;;;;;;20.50;15.93;;;21.20;99.90;;;;;;5062695;28;20098;-58
2022/07/30 11:45:14;;;;;;;20.03;17.70;;;21.10;99.90;;;;;;5061360;28;20009;-59
2022/07/30 11:47:44;;;;;;;21.42;17.80;;;21.10;99.90;;;;;;5058545;28;20264;-60
2022/07/30 11:50:36;;;;;;;21.50;17.38;;;21.10;99.90;;;;;;5056824;28;20032;-59
2022/07/30 11:53:14;;;;;;;20.50;18.40;;;21.00;99.90;;;;;;5056524;28;20033;-60
2022/07/30 11:55:44;;;;;;;20.88;18.67;;;20.90;99.90;;;;;;5059773;28;20059;-59
2022/07/30 11:58:43;;;;;;;24.77;18.90;;;20.90;99.90;;;;;;5060545;28;20387;-58
2022/07/30 12:01:14;;;;;;;25.45;19.65;;;20.70;99.90;;;;;;5060185;28;20025;-59
2022/07/30 12:03:42;;;;;;;24.63;20.92;;;20.70;99.90;;;;;;5059084;28;20021;-60
2022/07/30 12:06:16;;;;;;;26.40;22.70;;;20.70;99.90;;;;;;5060519;28;20480;-57
2022/07/30 12:08:44;;;;;;;24.45;21.90;;;20.70;99.90;;;;;;5059028;28;20083;-59
2022/07/30 12:11:11;;;;;;;26.85;21.80;;;20.40;99.90;;;;;;5060475;28;20029;-57
2022/07/30 12:13:38;;;;;;;24.98;21.73;;;20.30;99.90;;;;;;5061387;28;20044;-57
2022/07/30 12:16:22;;;;;;;;;;;20.20;99.90;;;;;;5063697;28;20063;-56
2022/07/30 12:18:48;;;;;;;27.00;22.65;;;20.30;99.90;;;;;;5060019;28;19921;-56
2022/07/30 12:21:17;;;;;;;29.73;25.20;;;20.10;99.90;;;;;;5059303;28;20491;-57
2022/07/30 12:23:54;;;;;;;25.67;23.00;;;20.30;99.90;;;;;;5059506;28;20029;-57
2022/07/30 12:26:21;;;;;;;25.83;22.92;;;20.30;99.90;;;;;;5058376;28;20027;-56
2022/07/30 12:28:47;;;;;;;30.45;25.40;;;20.40;99.90;;;;;;5059694;28;20055;-57
2022/07/30 12:31:15;;;;;;;28.85;25.73;;;20.30;99.90;;;;;;5060596;28;20040;-57
2022/07/30 12:33:41;;;;;;;31.85;27.17;;;20.00;99.90;;;;;;5058979;28;20521;-57
2022/07/30 12:36:08;;;;;;;34.92;28.45;;;20.00;99.90;;;;;;5062823;28;20037;-57
2022/07/30 12:38:51;;;;;;;30.42;25.20;;;20.10;99.90;;;;;;5066626;28;20016;-57
2022/07/30 12:41:16;;;;;;;32.28;27.33;;;20.00;99.90;;;;;;5067687;28;20032;-57
2022/07/30 12:43:49;;;;;;;33.25;28.95;;;19.90;99.90;;;;;;5071973;28;20155;-57
2022/07/30 12:46:20;;;;;;;33.35;29.38;;;19.90;99.90;;;;;;5058051;28;20025;-57
2022/07/30 12:48:50;;;;;;;34.03;30.30;;;20.00;99.90;;;;;;5055947;28;20025;-57